Columbus (CMH/KCMH)

Map

Destinations

Information

Location
Columbus, OH
Local Time
00:00 / 12:00 am
GMT Time
04:00 / 4:00 am
Gates
B11
No FAA reported delays
METAR KCMH 170351Z 12005KT 10SM FEW150 OVC250 25/21 A3000 RMK AO2 SLP150 T02500211
TAF KCMH 162340Z 1700/1724 VRB03KT P6SM FEW040 SCT250 FM170500 12004KT P6SM BKN120 FM171500 21007KT P6SM VCSH FEW040 SCT090 FM171900 20010KT P6SM -SHRA VCTS BKN070CB